sensor_id;sensor_type;location;lat;lon;timestamp;pressure;altitude;pressure_sealevel;temperature;humidity
23172;BME280;11754;42.664;23.594;2023-07-16T00:02:05;95619.25;;;24.21;70.22
23172;BME280;11754;42.664;23.594;2023-07-16T00:04:31;95615.44;;;24.17;70.33
23172;BME280;11754;42.664;23.594;2023-07-16T00:06:59;95615.91;;;24.14;70.53
23172;BME280;11754;42.664;23.594;2023-07-16T00:16:07;95610.53;;;24.14;70.78
23172;BME280;11754;42.664;23.594;2023-07-16T00:18:33;95611.50;;;24.08;70.67
23172;BME280;11754;42.664;23.594;2023-07-16T00:20:58;95609.41;;;24.10;70.76
23172;BME280;11754;42.664;23.594;2023-07-16T00:23:23;95624.59;;;24.16;70.79
23172;BME280;11754;42.664;23.594;2023-07-16T00:25:49;95611.50;;;24.08;70.67
23172;BME280;11754;42.664;23.594;2023-07-16T00:28:14;95616.72;;;24.15;70.71
23172;BME280;11754;42.664;23.594;2023-07-16T00:30:39;95617.72;;;24.09;70.40
23172;BME280;11754;42.664;23.594;2023-07-16T00:33:05;95608.75;;;24.03;69.62
23172;BME280;11754;42.664;23.594;2023-07-16T00:35:30;95598.47;;;24.00;69.20
23172;BME280;11754;42.664;23.594;2023-07-16T00:37:55;95605.16;;;23.97;69.10
23172;BME280;11754;42.664;23.594;2023-07-16T00:40:21;95607.53;;;23.94;69.31
23172;BME280;11754;42.664;23.594;2023-07-16T00:42:46;95628.69;;;24.02;69.35
23172;BME280;11754;42.664;23.594;2023-07-16T00:45:12;95618.41;;;23.99;69.30
23172;BME280;11754;42.664;23.594;2023-07-16T00:47:40;95624.28;;;23.96;69.76
23172;BME280;11754;42.664;23.594;2023-07-16T00:50:08;95618.88;;;23.96;69.82
23172;BME280;11754;42.664;23.594;2023-07-16T00:52:34;95627.38;;;23.88;70.06
23172;BME280;11754;42.664;23.594;2023-07-16T00:54:59;95610.91;;;23.84;69.74
23172;BME280;11754;42.664;23.594;2023-07-16T00:57:24;95627.19;;;23.94;69.90
23172;BME280;11754;42.664;23.594;2023-07-16T00:59:50;95600.53;;;23.76;69.62
23172;BME280;11754;42.664;23.594;2023-07-16T01:02:15;95610.00;;;23.79;69.83
23172;BME280;11754;42.664;23.594;2023-07-16T01:04:41;95610.50;;;23.76;69.90
23172;BME280;11754;42.664;23.594;2023-07-16T01:07:08;95613.03;;;23.82;70.38
23172;BME280;11754;42.664;23.594;2023-07-16T01:09:41;95610.59;;;23.81;70.81
23172;BME280;11754;42.664;23.594;2023-07-16T01:12:08;95624.59;;;23.83;70.80
23172;BME280;11754;42.664;23.594;2023-07-16T01:14:38;95626.75;;;23.81;70.51
23172;BME280;11754;42.664;23.594;2023-07-16T01:17:05;95616.13;;;23.74;70.48
23172;BME280;11754;42.664;23.594;2023-07-16T01:19:34;95615.31;;;23.73;70.50
23172;BME280;11754;42.664;23.594;2023-07-16T01:25:29;95618.50;;;23.70;70.70
23172;BME280;11754;42.664;23.594;2023-07-16T01:30:28;95609.91;;;23.57;70.97
23172;BME280;11754;42.664;23.594;2023-07-16T01:32:55;95623.50;;;23.50;70.78
23172;BME280;11754;42.664;23.594;2023-07-16T01:35:21;95608.31;;;23.44;71.01
23172;BME280;11754;42.664;23.594;2023-07-16T01:37:46;95606.03;;;23.36;71.15
23172;BME280;11754;42.664;23.594;2023-07-16T01:40:12;95608.06;;;23.29;71.17
23172;BME280;11754;42.664;23.594;2023-07-16T01:42:38;95621.22;;;23.42;71.12
23172;BME280;11754;42.664;23.594;2023-07-16T01:45:03;95628.00;;;23.44;71.50
23172;BME280;11754;42.664;23.594;2023-07-16T01:50:50;95620.22;;;23.31;71.51
23172;BME280;11754;42.664;23.594;2023-07-16T01:53:16;95611.84;;;23.27;71.64
23172;BME280;11754;42.664;23.594;2023-07-16T01:55:41;95611.25;;;23.25;71.76
23172;BME280;11754;42.664;23.594;2023-07-16T01:58:06;95628.63;;;23.35;71.54
23172;BME280;11754;42.664;23.594;2023-07-16T02:04:00;95611.75;;;23.22;71.41
23172;BME280;11754;42.664;23.594;2023-07-16T02:06:26;95615.16;;;23.18;71.92
23172;BME280;11754;42.664;23.594;2023-07-16T02:08:51;95608.88;;;23.12;72.14
23172;BME280;11754;42.664;23.594;2023-07-16T02:11:17;95611.47;;;23.07;72.48
23172;BME280;11754;42.664;23.594;2023-07-16T02:13:42;95614.41;;;23.06;72.71
23172;BME280;11754;42.664;23.594;2023-07-16T02:16:07;95629.59;;;23.12;72.88
23172;BME280;11754;42.664;23.594;2023-07-16T02:18:33;95609.84;;;23.06;72.70
23172;BME280;11754;42.664;23.594;2023-07-16T02:20:58;95617.91;;;23.06;73.03
23172;BME280;11754;42.664;23.594;2023-07-16T02:23:23;95625.50;;;23.09;72.75
23172;BME280;11754;42.664;23.594;2023-07-16T02:25:49;95612.44;;;23.01;72.86
23172;BME280;11754;42.664;23.594;2023-07-16T02:35:22;95624.16;;;22.95;73.12
23172;BME280;11754;42.664;23.594;2023-07-16T02:37:48;95617.59;;;22.91;73.18
23172;BME280;11754;42.664;23.594;2023-07-16T02:40:13;95613.16;;;22.85;73.27
23172;BME280;11754;42.664;23.594;2023-07-16T02:42:38;95602.88;;;22.82;72.95
23172;BME280;11754;42.664;23.594;2023-07-16T02:51:53;95619.28;;;22.80;72.84
23172;BME280;11754;42.664;23.594;2023-07-16T02:54:19;95615.19;;;22.77;73.00
23172;BME280;11754;42.664;23.594;2023-07-16T02:56:44;95635.97;;;22.82;73.00
23172;BME280;11754;42.664;23.594;2023-07-16T02:59:09;95642.16;;;22.83;73.04
23172;BME280;11754;42.664;23.594;2023-07-16T03:01:35;95636.44;;;22.79;73.16
23172;BME280;11754;42.664;23.594;2023-07-16T03:04:00;95643.81;;;22.84;72.87
23172;BME280;11754;42.664;23.594;2023-07-16T03:06:25;95634.47;;;22.74;73.04
23172;BME280;11754;42.664;23.594;2023-07-16T03:08:51;95637.41;;;22.73;72.94
23172;BME280;11754;42.664;23.594;2023-07-16T03:11:16;95631.69;;;22.69;73.16
23172;BME280;11754;42.664;23.594;2023-07-16T03:13:41;95634.94;;;22.71;73.03
23172;BME280;11754;42.664;23.594;2023-07-16T03:16:07;95621.97;;;22.68;72.91
23172;BME280;11754;42.664;23.594;2023-07-16T03:18:32;95629.91;;;22.75;72.80
23172;BME280;11754;42.664;23.594;2023-07-16T03:20:59;95613.25;;;22.61;72.78
23172;BME280;11754;42.664;23.594;2023-07-16T03:23:25;95625.50;;;22.69;73.08
23172;BME280;11754;42.664;23.594;2023-07-16T03:25:51;95634.00;;;22.77;72.93
23172;BME280;11754;42.664;23.594;2023-07-16T03:28:17;95641.47;;;22.75;73.20
23172;BME280;11754;42.664;23.594;2023-07-16T03:34:04;95639.84;;;22.74;72.67
23172;BME280;11754;42.664;23.594;2023-07-16T03:36:29;95649.19;;;22.84;72.42
23172;BME280;11754;42.664;23.594;2023-07-16T03:38:55;95641.81;;;22.79;72.51
23172;BME280;11754;42.664;23.594;2023-07-16T03:41:20;95643.69;;;22.90;72.46
23172;BME280;11754;42.664;23.594;2023-07-16T03:43:45;95637.47;;;22.90;72.15
23172;BME280;11754;42.664;23.594;2023-07-16T03:46:11;95646.59;;;22.89;72.18
23172;BME280;11754;42.664;23.594;2023-07-16T03:48:36;95647.78;;;22.93;72.15
23172;BME280;11754;42.664;23.594;2023-07-16T03:51:01;95666.31;;;23.06;71.88
23172;BME280;11754;42.664;23.594;2023-07-16T03:53:27;95663.97;;;23.10;71.87
23172;BME280;11754;42.664;23.594;2023-07-16T03:55:52;95645.94;;;23.10;72.11
23172;BME280;11754;42.664;23.594;2023-07-16T03:58:17;95661.22;;;23.21;71.96
23172;BME280;11754;42.664;23.594;2023-07-16T04:00:43;95656.66;;;23.22;71.98
23172;BME280;11754;42.664;23.594;2023-07-16T04:03:09;95638.06;;;23.20;71.66
23172;BME280;11754;42.664;23.594;2023-07-16T04:05:34;95653.34;;;23.32;71.30
23172;BME280;11754;42.664;23.594;2023-07-16T04:08:00;95665.84;;;23.38;71.25
23172;BME280;11754;42.664;23.594;2023-07-16T04:10:25;95668.59;;;23.43;70.99
23172;BME280;11754;42.664;23.594;2023-07-16T04:12:50;95656.09;;;23.37;70.96
23172;BME280;11754;42.664;23.594;2023-07-16T04:15:16;95656.22;;;23.42;70.80
23172;BME280;11754;42.664;23.594;2023-07-16T04:17:41;95672.41;;;23.59;70.90
23172;BME280;11754;42.664;23.594;2023-07-16T04:20:07;95658.94;;;23.59;70.93
23172;BME280;11754;42.664;23.594;2023-07-16T04:22:37;95666.38;;;23.68;70.13
23172;BME280;11754;42.664;23.594;2023-07-16T04:25:05;95660.63;;;23.65;70.33
23172;BME280;11754;42.664;23.594;2023-07-16T04:27:31;95669.19;;;23.73;70.04
23172;BME280;11754;42.664;23.594;2023-07-16T04:29:56;95658.75;;;23.65;70.55
23172;BME280;11754;42.664;23.594;2023-07-16T04:32:25;95677.97;;;23.86;70.05
23172;BME280;11754;42.664;23.594;2023-07-16T04:34:50;95678.63;;;23.93;70.25
23172;BME280;11754;42.664;23.594;2023-07-16T04:37:15;95666.47;;;23.90;70.04
23172;BME280;11754;42.664;23.594;2023-07-16T04:39:41;95678.97;;;23.96;70.18
23172;BME280;11754;42.664;23.594;2023-07-16T04:42:06;95666.31;;;23.97;69.76
23172;BME280;11754;42.664;23.594;2023-07-16T04:44:32;95666.88;;;23.99;70.37
23172;BME280;11754;42.664;23.594;2023-07-16T04:47:09;95660.44;;;24.00;68.67
23172;BME280;11754;42.664;23.594;2023-07-16T04:49:35;95670.13;;;24.01;67.61
23172;BME280;11754;42.664;23.594;2023-07-16T04:52:01;95684.34;;;24.13;68.36
23172;BME280;11754;42.664;23.594;2023-07-16T04:54:27;95679.78;;;24.14;67.93
23172;BME280;11754;42.664;23.594;2023-07-16T04:56:52;95687.59;;;24.15;68.28
23172;BME280;11754;42.664;23.594;2023-07-16T04:59:30;95687.75;;;24.26;67.57
23172;BME280;11754;42.664;23.594;2023-07-16T05:01:55;95690.53;;;24.31;67.40
23172;BME280;11754;42.664;23.594;2023-07-16T05:04:20;95687.75;;;24.26;66.62
23172;BME280;11754;42.664;23.594;2023-07-16T05:06:47;95691.09;;;24.33;66.73
23172;BME280;11754;42.664;23.594;2023-07-16T05:09:12;95684.50;;;24.40;66.13
23172;BME280;11754;42.664;23.594;2023-07-16T05:11:38;95679.09;;;24.40;65.69
23172;BME280;11754;42.664;23.594;2023-07-16T05:14:03;95690.34;;;24.54;65.55
23172;BME280;11754;42.664;23.594;2023-07-16T05:16:29;95700.16;;;24.60;65.22
23172;BME280;11754;42.664;23.594;2023-07-16T05:18:54;95687.22;;;24.62;64.52
23172;BME280;11754;42.664;23.594;2023-07-16T05:35:04;95698.34;;;25.10;62.21
23172;BME280;11754;42.664;23.594;2023-07-16T05:37:29;95677.66;;;25.15;62.00
23172;BME280;11754;42.664;23.594;2023-07-16T05:39:55;95684.25;;;25.25;62.10
23172;BME280;11754;42.664;23.594;2023-07-16T05:42:20;95683.22;;;25.31;60.86
23172;BME280;11754;42.664;23.594;2023-07-16T05:48:29;95674.16;;;25.42;60.73
23172;BME280;11754;42.664;23.594;2023-07-16T05:50:54;95676.94;;;25.52;60.35
23172;BME280;11754;42.664;23.594;2023-07-16T05:53:19;95675.72;;;25.65;59.95
23172;BME280;11754;42.664;23.594;2023-07-16T05:55:45;95689.06;;;25.77;59.37
23172;BME280;11754;42.664;23.594;2023-07-16T05:58:10;95683.09;;;25.75;58.15
23172;BME280;11754;42.664;23.594;2023-07-16T06:00:35;95694.63;;;25.92;58.03
23172;BME280;11754;42.664;23.594;2023-07-16T06:03:04;95702.69;;;25.87;58.03
23172;BME280;11754;42.664;23.594;2023-07-16T06:12:25;95699.34;;;26.07;58.80
23172;BME280;11754;42.664;23.594;2023-07-16T06:14:50;95697.00;;;26.16;58.55
23172;BME280;11754;42.664;23.594;2023-07-16T06:17:15;95682.13;;;26.18;57.49
23172;BME280;11754;42.664;23.594;2023-07-16T06:19:41;95692.19;;;26.23;56.67
23172;BME280;11754;42.664;23.594;2023-07-16T06:22:06;95690.88;;;26.30;56.87
23172;BME280;11754;42.664;23.594;2023-07-16T06:24:34;95702.06;;;26.44;56.45
23172;BME280;11754;42.664;23.594;2023-07-16T06:27:00;95691.84;;;26.51;56.42
23172;BME280;11754;42.664;23.594;2023-07-16T06:29:25;95674.28;;;26.54;55.89
23172;BME280;11754;42.664;23.594;2023-07-16T06:31:58;95691.94;;;26.67;56.89
23172;BME280;11754;42.664;23.594;2023-07-16T06:34:24;95696.31;;;26.83;55.93
23172;BME280;11754;42.664;23.594;2023-07-16T06:36:49;95687.72;;;26.91;56.63
23172;BME280;11754;42.664;23.594;2023-07-16T06:39:15;95676.66;;;27.03;56.13
23172;BME280;11754;42.664;23.594;2023-07-16T06:41:40;95686.97;;;27.06;56.16
23172;BME280;11754;42.664;23.594;2023-07-16T06:44:05;95678.63;;;27.18;56.44
23172;BME280;11754;42.664;23.594;2023-07-16T06:46:31;95674.63;;;27.36;56.65
23172;BME280;11754;42.664;23.594;2023-07-16T06:48:56;95666.28;;;27.52;55.32
23172;BME280;11754;42.664;23.594;2023-07-16T06:51:21;95672.78;;;27.72;53.83
23172;BME280;11754;42.664;23.594;2023-07-16T06:53:47;95677.97;;;27.78;54.50
23172;BME280;11754;42.664;23.594;2023-07-16T06:56:12;95667.66;;;27.91;53.98
23172;BME280;11754;42.664;23.594;2023-07-16T06:58:38;95668.50;;;27.96;53.71
23172;BME280;11754;42.664;23.594;2023-07-16T07:01:03;95669.03;;;27.93;55.31
23172;BME280;11754;42.664;23.594;2023-07-16T07:03:28;95678.25;;;28.13;54.69
23172;BME280;11754;42.664;23.594;2023-07-16T07:05:54;95670.09;;;28.28;55.28
23172;BME280;11754;42.664;23.594;2023-07-16T07:08:19;95667.66;;;28.37;54.65
23172;BME280;11754;42.664;23.594;2023-07-16T07:10:46;95674.13;;;28.56;53.28
23172;BME280;11754;42.664;23.594;2023-07-16T07:13:12;95659.22;;;28.59;53.41
23172;BME280;11754;42.664;23.594;2023-07-16T07:15:37;95680.63;;;28.65;53.04
23172;BME280;11754;42.664;23.594;2023-07-16T07:18:03;95677.59;;;28.77;51.76
23172;BME280;11754;42.664;23.594;2023-07-16T07:20:28;95670.53;;;28.81;51.76
23172;BME280;11754;42.664;23.594;2023-07-16T07:22:53;95669.16;;;28.89;50.64
23172;BME280;11754;42.664;23.594;2023-07-16T07:25:19;95670.19;;;28.98;51.79
23172;BME280;11754;42.664;23.594;2023-07-16T07:27:45;95662.34;;;29.02;52.10
23172;BME280;11754;42.664;23.594;2023-07-16T07:30:10;95649.81;;;29.11;52.30
23172;BME280;11754;42.664;23.594;2023-07-16T07:32:37;95668.94;;;29.40;50.90
23172;BME280;11754;42.664;23.594;2023-07-16T07:35:04;95659.38;;;29.48;50.88
23172;BME280;11754;42.664;23.594;2023-07-16T07:37:30;95669.63;;;29.66;49.44
23172;BME280;11754;42.664;23.594;2023-07-16T07:39:55;95656.53;;;29.73;49.67
23172;BME280;11754;42.664;23.594;2023-07-16T07:42:21;95646.47;;;29.74;48.08
23172;BME280;11754;42.664;23.594;2023-07-16T07:44:46;95665.16;;;29.80;48.52
23172;BME280;11754;42.664;23.594;2023-07-16T07:47:11;95659.56;;;29.66;50.32
23172;BME280;11754;42.664;23.594;2023-07-16T07:49:37;95655.72;;;29.73;50.48
23172;BME280;11754;42.664;23.594;2023-07-16T07:52:02;95652.13;;;29.77;48.59
23172;BME280;11754;42.664;23.594;2023-07-16T07:54:27;95641.69;;;29.89;48.52
23172;BME280;11754;42.664;23.594;2023-07-16T07:56:53;95645.19;;;29.95;50.11
23172;BME280;11754;42.664;23.594;2023-07-16T07:59:18;95652.38;;;30.15;49.10
23172;BME280;11754;42.664;23.594;2023-07-16T08:01:43;95653.97;;;30.21;50.46
23172;BME280;11754;42.664;23.594;2023-07-16T08:04:09;95659.84;;;30.33;49.72
23172;BME280;11754;42.664;23.594;2023-07-16T08:06:34;95656.41;;;30.52;49.67
23172;BME280;11754;42.664;23.594;2023-07-16T08:08:59;95637.25;;;30.62;49.73
23172;BME280;11754;42.664;23.594;2023-07-16T08:11:25;95634.88;;;30.79;48.23
23172;BME280;11754;42.664;23.594;2023-07-16T08:13:50;95634.75;;;30.90;48.54
23172;BME280;11754;42.664;23.594;2023-07-16T08:16:15;95641.91;;;31.04;47.06
23172;BME280;11754;42.664;23.594;2023-07-16T08:22:03;95644.06;;;31.07;46.08
23172;BME280;11754;42.664;23.594;2023-07-16T08:24:28;95641.66;;;31.06;47.82
23172;BME280;11754;42.664;23.594;2023-07-16T08:26:54;95649.06;;;31.19;47.67
23172;BME280;11754;42.664;23.594;2023-07-16T08:29:19;95653.25;;;31.35;47.47
23172;BME280;11754;42.664;23.594;2023-07-16T08:31:44;95643.09;;;31.60;46.90
23172;BME280;11754;42.664;23.594;2023-07-16T08:34:10;95643.47;;;31.53;45.66
23172;BME280;11754;42.664;23.594;2023-07-16T08:36:36;95659.38;;;31.65;44.58
23172;BME280;11754;42.664;23.594;2023-07-16T08:39:02;95647.09;;;31.49;46.25
23172;BME280;11754;42.664;23.594;2023-07-16T08:41:27;95646.09;;;31.58;47.15
23172;BME280;11754;42.664;23.594;2023-07-16T08:43:54;95634.38;;;31.58;46.62
23172;BME280;11754;42.664;23.594;2023-07-16T08:46:19;95645.38;;;31.53;45.55
23172;BME280;11754;42.664;23.594;2023-07-16T08:48:45;95637.50;;;31.70;46.42
23172;BME280;11754;42.664;23.594;2023-07-16T08:51:14;95636.78;;;31.97;44.86
23172;BME280;11754;42.664;23.594;2023-07-16T08:53:39;95633.97;;;31.89;44.64
23172;BME280;11754;42.664;23.594;2023-07-16T08:56:05;95642.91;;;32.08;44.40
23172;BME280;11754;42.664;23.594;2023-07-16T08:58:30;95647.00;;;32.24;46.22
23172;BME280;11754;42.664;23.594;2023-07-16T09:00:56;95640.56;;;32.48;44.81
23172;BME280;11754;42.664;23.594;2023-07-16T09:03:21;95636.22;;;32.74;44.29
23172;BME280;11754;42.664;23.594;2023-07-16T09:05:47;95638.00;;;32.98;43.18
23172;BME280;11754;42.664;23.594;2023-07-16T09:08:13;95630.28;;;32.59;43.01
23172;BME280;11754;42.664;23.594;2023-07-16T09:10:42;95618.44;;;32.49;43.30
23172;BME280;11754;42.664;23.594;2023-07-16T09:13:07;95613.28;;;32.62;43.34
23172;BME280;11754;42.664;23.594;2023-07-16T09:15:33;95629.69;;;33.03;43.49
23172;BME280;11754;42.664;23.594;2023-07-16T09:17:59;95624.16;;;33.31;42.08
23172;BME280;11754;42.664;23.594;2023-07-16T09:20:25;95626.88;;;33.58;42.50
23172;BME280;11754;42.664;23.594;2023-07-16T09:22:56;95627.34;;;33.60;41.28
23172;BME280;11754;42.664;23.594;2023-07-16T09:25:39;95613.47;;;33.57;42.56
23172;BME280;11754;42.664;23.594;2023-07-16T09:28:06;95609.94;;;33.56;43.28
23172;BME280;11754;42.664;23.594;2023-07-16T09:30:32;95608.09;;;33.65;42.17
23172;BME280;11754;42.664;23.594;2023-07-16T09:43:06;95612.81;;;34.50;39.95
23172;BME280;11754;42.664;23.594;2023-07-16T09:45:31;95610.97;;;34.59;40.98
23172;BME280;11754;42.664;23.594;2023-07-16T09:47:57;95600.44;;;34.92;40.33
23172;BME280;11754;42.664;23.594;2023-07-16T09:50:28;95603.56;;;35.25;39.62
23172;BME280;11754;42.664;23.594;2023-07-16T09:52:56;95596.81;;;35.40;39.57
23172;BME280;11754;42.664;23.594;2023-07-16T09:55:22;95597.00;;;35.52;39.68
23172;BME280;11754;42.664;23.594;2023-07-16T09:57:48;95594.72;;;35.89;39.06
23172;BME280;11754;42.664;23.594;2023-07-16T10:00:15;95592.09;;;36.19;38.10
23172;BME280;11754;42.664;23.594;2023-07-16T10:02:42;95591.56;;;36.34;38.34
23172;BME280;11754;42.664;23.594;2023-07-16T10:05:15;95598.84;;;36.47;37.13
23172;BME280;11754;42.664;23.594;2023-07-16T10:07:42;95585.31;;;36.72;36.03
23172;BME280;11754;42.664;23.594;2023-07-16T10:10:11;95588.91;;;36.93;34.94
23172;BME280;11754;42.664;23.594;2023-07-16T10:15:59;95587.72;;;36.26;36.29
23172;BME280;11754;42.664;23.594;2023-07-16T10:18:25;95585.19;;;36.60;36.17
23172;BME280;11754;42.664;23.594;2023-07-16T10:20:52;95576.25;;;36.71;36.90
23172;BME280;11754;42.664;23.594;2023-07-16T10:23:18;95567.31;;;37.13;36.71
23172;BME280;11754;42.664;23.594;2023-07-16T10:26:02;95573.41;;;37.48;35.56
23172;BME280;11754;42.664;23.594;2023-07-16T10:28:33;95573.28;;;37.98;32.94
23172;BME280;11754;42.664;23.594;2023-07-16T10:30:59;95571.41;;;37.90;33.32
23172;BME280;11754;42.664;23.594;2023-07-16T10:33:24;95575.81;;;38.49;33.39
23172;BME280;11754;42.664;23.594;2023-07-16T10:35:49;95572.28;;;39.10;31.92
23172;BME280;11754;42.664;23.594;2023-07-16T10:38:15;95562.72;;;39.60;29.81
23172;BME280;11754;42.664;23.594;2023-07-16T10:40:44;95560.34;;;39.86;29.58
23172;BME280;11754;42.664;23.594;2023-07-16T10:43:11;95563.66;;;40.52;29.48
23172;BME280;11754;42.664;23.594;2023-07-16T10:45:36;95556.63;;;41.02;29.86
23172;BME280;11754;42.664;23.594;2023-07-16T10:48:02;95560.50;;;41.91;28.93
23172;BME280;11754;42.664;23.594;2023-07-16T10:50:27;95551.19;;;42.91;28.01
23172;BME280;11754;42.664;23.594;2023-07-16T10:52:56;95550.25;;;43.93;27.21
23172;BME280;11754;42.664;23.594;2023-07-16T10:55:23;95545.38;;;44.65;25.12
23172;BME280;11754;42.664;23.594;2023-07-16T10:57:49;95540.75;;;45.38;24.00
23172;BME280;11754;42.664;23.594;2023-07-16T11:00:16;95542.31;;;46.59;24.71
23172;BME280;11754;42.664;23.594;2023-07-16T11:09:45;95526.91;;;50.06;19.91
23172;BME280;11754;42.664;23.594;2023-07-16T11:12:12;95528.16;;;51.06;19.31
23172;BME280;11754;42.664;23.594;2023-07-16T11:14:41;95528.53;;;51.72;18.16
23172;BME280;11754;42.664;23.594;2023-07-16T11:17:07;95518.81;;;52.12;17.79
23172;BME280;11754;42.664;23.594;2023-07-16T11:19:35;95514.47;;;52.44;16.81
23172;BME280;11754;42.664;23.594;2023-07-16T11:22:02;95516.88;;;52.62;17.20
23172;BME280;11754;42.664;23.594;2023-07-16T11:24:28;95502.47;;;53.05;16.14
23172;BME280;11754;42.664;23.594;2023-07-16T11:26:55;95501.47;;;53.28;16.26
23172;BME280;11754;42.664;23.594;2023-07-16T11:36:06;95485.31;;;55.77;15.12
23172;BME280;11754;42.664;23.594;2023-07-16T11:38:36;95498.75;;;56.26;14.51
23172;BME280;11754;42.664;23.594;2023-07-16T11:41:01;95485.41;;;56.76;14.45
23172;BME280;11754;42.664;23.594;2023-07-16T11:43:26;95491.44;;;57.15;13.83
23172;BME280;11754;42.664;23.594;2023-07-16T11:45:52;95481.81;;;57.22;14.21
23172;BME280;11754;42.664;23.594;2023-07-16T11:48:17;95492.06;;;57.47;13.11
23172;BME280;11754;42.664;23.594;2023-07-16T11:50:42;95479.56;;;56.21;14.16
23172;BME280;11754;42.664;23.594;2023-07-16T11:53:08;95483.09;;;54.81;14.77
23172;BME280;11754;42.664;23.594;2023-07-16T11:55:33;95478.69;;;54.92;14.05
23172;BME280;11754;42.664;23.594;2023-07-16T11:57:58;95477.94;;;55.58;14.93
23172;BME280;11754;42.664;23.594;2023-07-16T12:00:25;95473.94;;;56.30;12.96
23172;BME280;11754;42.664;23.594;2023-07-16T12:02:50;95473.44;;;56.91;13.94
23172;BME280;11754;42.664;23.594;2023-07-16T12:05:20;95478.84;;;57.07;12.85
23172;BME280;11754;42.664;23.594;2023-07-16T12:07:45;95477.16;;;57.89;14.00
23172;BME280;11754;42.664;23.594;2023-07-16T12:10:11;95478.75;;;58.56;14.43
23172;BME280;11754;42.664;23.594;2023-07-16T12:12:36;95484.88;;;59.12;12.96
23172;BME280;11754;42.664;23.594;2023-07-16T12:15:04;95479.47;;;59.38;13.80
23172;BME280;11754;42.664;23.594;2023-07-16T12:17:29;95477.34;;;59.92;13.15
23172;BME280;11754;42.664;23.594;2023-07-16T12:19:54;95484.56;;;60.23;12.04
23172;BME280;11754;42.664;23.594;2023-07-16T12:22:20;95472.44;;;60.07;12.96
23172;BME280;11754;42.664;23.594;2023-07-16T12:24:46;95470.66;;;60.10;12.09
23172;BME280;11754;42.664;23.594;2023-07-16T12:27:11;95471.34;;;59.90;12.87
23172;BME280;11754;42.664;23.594;2023-07-16T12:29:37;95466.34;;;59.55;13.12
23172;BME280;11754;42.664;23.594;2023-07-16T12:32:07;95466.22;;;58.96;12.44
23172;BME280;11754;42.664;23.594;2023-07-16T12:34:33;95462.69;;;58.29;12.48
23172;BME280;11754;42.664;23.594;2023-07-16T12:36:58;95461.72;;;57.81;13.80
23172;BME280;11754;42.664;23.594;2023-07-16T12:39:24;95460.56;;;57.17;14.01
23172;BME280;11754;42.664;23.594;2023-07-16T12:41:49;95450.03;;;56.41;14.78
23172;BME280;11754;42.664;23.594;2023-07-16T13:13:39;95438.31;;;46.76;17.69
23172;BME280;11754;42.664;23.594;2023-07-16T13:16:06;95433.94;;;46.18;20.67
23172;BME280;11754;42.664;23.594;2023-07-16T13:18:32;95433.06;;;45.67;19.15
23172;BME280;11754;42.664;23.594;2023-07-16T13:20:57;95446.44;;;45.33;20.23
23172;BME280;11754;42.664;23.594;2023-07-16T13:23:22;95434.19;;;44.72;21.81
23172;BME280;11754;42.664;23.594;2023-07-16T13:25:48;95445.84;;;44.33;22.63
23172;BME280;11754;42.664;23.594;2023-07-16T13:28:16;95430.38;;;43.95;22.71
23172;BME280;11754;42.664;23.594;2023-07-16T13:30:41;95439.19;;;43.66;22.91
23172;BME280;11754;42.664;23.594;2023-07-16T13:33:07;95425.50;;;43.47;23.38
23172;BME280;11754;42.664;23.594;2023-07-16T13:35:32;95422.88;;;43.28;22.55
23172;BME280;11754;42.664;23.594;2023-07-16T13:37:57;95421.41;;;43.04;22.59
23172;BME280;11754;42.664;23.594;2023-07-16T13:40:23;95426.56;;;42.75;23.11
23172;BME280;11754;42.664;23.594;2023-07-16T13:42:48;95422.22;;;42.51;23.81
23172;BME280;11754;42.664;23.594;2023-07-16T13:45:14;95435.56;;;42.42;21.78
23172;BME280;11754;42.664;23.594;2023-07-16T13:47:39;95416.59;;;41.98;22.50
23172;BME280;11754;42.664;23.594;2023-07-16T13:50:05;95423.34;;;41.77;23.75
23172;BME280;11754;42.664;23.594;2023-07-16T13:52:30;95417.44;;;41.56;24.12
23172;BME280;11754;42.664;23.594;2023-07-16T14:08:37;95416.09;;;40.92;26.70
23172;BME280;11754;42.664;23.594;2023-07-16T14:11:02;95416.34;;;40.67;26.42
23172;BME280;11754;42.664;23.594;2023-07-16T14:13:28;95407.13;;;40.44;27.91
23172;BME280;11754;42.664;23.594;2023-07-16T14:15:54;95412.91;;;40.39;26.96
23172;BME280;11754;42.664;23.594;2023-07-16T14:18:19;95409.56;;;39.98;27.17
23172;BME280;11754;42.664;23.594;2023-07-16T14:20:44;95406.06;;;39.69;26.67
23172;BME280;11754;42.664;23.594;2023-07-16T14:23:10;95406.66;;;39.47;27.39
23172;BME280;11754;42.664;23.594;2023-07-16T14:25:35;95417.50;;;39.55;29.18
23172;BME280;11754;42.664;23.594;2023-07-16T14:28:00;95417.78;;;39.66;29.26
23172;BME280;11754;42.664;23.594;2023-07-16T14:30:26;95415.09;;;39.82;28.48
23172;BME280;11754;42.664;23.594;2023-07-16T14:32:51;95416.59;;;39.79;28.98
23172;BME280;11754;42.664;23.594;2023-07-16T14:35:17;95419.34;;;39.79;28.83
23172;BME280;11754;42.664;23.594;2023-07-16T14:37:42;95419.09;;;39.84;28.89
23172;BME280;11754;42.664;23.594;2023-07-16T14:40:08;95418.56;;;39.95;28.71
23172;BME280;11754;42.664;23.594;2023-07-16T14:42:34;95413.91;;;39.99;28.61
23172;BME280;11754;42.664;23.594;2023-07-16T14:44:59;95422.47;;;39.94;28.37
23172;BME280;11754;42.664;23.594;2023-07-16T14:47:25;95420.53;;;39.94;28.84
23172;BME280;11754;42.664;23.594;2023-07-16T14:49:50;95410.78;;;39.84;29.30
23172;BME280;11754;42.664;23.594;2023-07-16T14:52:15;95417.31;;;39.76;27.52
23172;BME280;11754;42.664;23.594;2023-07-16T14:54:41;95413.69;;;39.60;28.67
23172;BME280;11754;42.664;23.594;2023-07-16T15:10:32;95423.81;;;38.47;29.65
23172;BME280;11754;42.664;23.594;2023-07-16T15:12:58;95432.31;;;38.42;30.37